sensor_id;sensor_type;location;lat;lon;timestamp;temperature;humidity
19348;DHT22;9810;52.480;9.806;2023-04-01T00:01:11;9.90;99.90
19348;DHT22;9810;52.480;9.806;2023-04-01T00:03:41;9.90;99.90
19348;DHT22;9810;52.480;9.806;2023-04-01T00:06:09;9.90;99.90
19348;DHT22;9810;52.480;9.806;2023-04-01T00:08:37;9.90;99.90
19348;DHT22;9810;52.480;9.806;2023-04-01T00:11:04;9.90;99.90
19348;DHT22;9810;52.480;9.806;2023-04-01T00:13:32;9.90;99.90
19348;DHT22;9810;52.480;9.806;2023-04-01T00:15:59;9.90;99.90
19348;DHT22;9810;52.480;9.806;2023-04-01T00:18:27;9.90;99.90
19348;DHT22;9810;52.480;9.806;2023-04-01T00:20:56;9.90;99.90
19348;DHT22;9810;52.480;9.806;2023-04-01T00:23:23;9.80;99.90
19348;DHT22;9810;52.480;9.806;2023-04-01T00:25:50;9.90;99.90
19348;DHT22;9810;52.480;9.806;2023-04-01T00:28:19;9.90;99.90
19348;DHT22;9810;52.480;9.806;2023-04-01T00:30:47;9.90;99.90
19348;DHT22;9810;52.480;9.806;2023-04-01T00:33:15;9.90;99.90
19348;DHT22;9810;52.480;9.806;2023-04-01T00:35:43;9.80;99.90
19348;DHT22;9810;52.480;9.806;2023-04-01T00:38:13;9.80;99.90
19348;DHT22;9810;52.480;9.806;2023-04-01T00:40:45;9.80;99.90
19348;DHT22;9810;52.480;9.806;2023-04-01T00:43:15;9.80;99.90
19348;DHT22;9810;52.480;9.806;2023-04-01T00:45:45;9.80;99.90
19348;DHT22;9810;52.480;9.806;2023-04-01T00:48:15;9.80;99.90
19348;DHT22;9810;52.480;9.806;2023-04-01T00:50:47;9.90;99.90
19348;DHT22;9810;52.480;9.806;2023-04-01T00:53:19;9.80;99.90
19348;DHT22;9810;52.480;9.806;2023-04-01T00:55:51;9.90;99.90
19348;DHT22;9810;52.480;9.806;2023-04-01T00:58:22;9.90;99.90
19348;DHT22;9810;52.480;9.806;2023-04-01T01:00:51;9.80;99.90
19348;DHT22;9810;52.480;9.806;2023-04-01T01:03:19;9.90;99.90
19348;DHT22;9810;52.480;9.806;2023-04-01T01:05:58;9.90;99.90
19348;DHT22;9810;52.480;9.806;2023-04-01T01:08:44;9.90;99.90
19348;DHT22;9810;52.480;9.806;2023-04-01T01:11:17;10.00;99.90
19348;DHT22;9810;52.480;9.806;2023-04-01T01:13:52;9.90;99.90
19348;DHT22;9810;52.480;9.806;2023-04-01T01:16:26;9.90;99.90
19348;DHT22;9810;52.480;9.806;2023-04-01T01:19:00;9.90;99.90
19348;DHT22;9810;52.480;9.806;2023-04-01T01:21:49;9.90;99.90
19348;DHT22;9810;52.480;9.806;2023-04-01T01:24:53;9.90;99.90
19348;DHT22;9810;52.480;9.806;2023-04-01T01:27:22;9.90;99.90
19348;DHT22;9810;52.480;9.806;2023-04-01T01:30:30;9.90;99.90
19348;DHT22;9810;52.480;9.806;2023-04-01T01:33:17;9.90;99.90
19348;DHT22;9810;52.480;9.806;2023-04-01T01:35:50;9.90;99.90
19348;DHT22;9810;52.480;9.806;2023-04-01T01:38:22;9.80;99.90
19348;DHT22;9810;52.480;9.806;2023-04-01T01:40:50;9.80;99.90
19348;DHT22;9810;52.480;9.806;2023-04-01T01:43:22;9.80;99.90
19348;DHT22;9810;52.480;9.806;2023-04-01T01:45:53;9.80;99.90
19348;DHT22;9810;52.480;9.806;2023-04-01T01:48:22;9.80;99.90
19348;DHT22;9810;52.480;9.806;2023-04-01T01:50:52;9.80;99.90
19348;DHT22;9810;52.480;9.806;2023-04-01T01:53:20;9.80;99.90
19348;DHT22;9810;52.480;9.806;2023-04-01T01:55:48;9.70;99.90
19348;DHT22;9810;52.480;9.806;2023-04-01T01:58:19;9.70;99.90
19348;DHT22;9810;52.480;9.806;2023-04-01T02:00:50;9.70;99.90
19348;DHT22;9810;52.480;9.806;2023-04-01T02:03:20;9.60;99.90
19348;DHT22;9810;52.480;9.806;2023-04-01T02:05:51;9.60;99.90
19348;DHT22;9810;52.480;9.806;2023-04-01T02:08:22;9.60;99.90
19348;DHT22;9810;52.480;9.806;2023-04-01T02:10:57;9.60;99.90
19348;DHT22;9810;52.480;9.806;2023-04-01T02:13:29;9.60;99.90
19348;DHT22;9810;52.480;9.806;2023-04-01T02:16:01;9.60;99.90
19348;DHT22;9810;52.480;9.806;2023-04-01T02:18:30;9.60;99.90
19348;DHT22;9810;52.480;9.806;2023-04-01T02:21:03;9.60;99.90
19348;DHT22;9810;52.480;9.806;2023-04-01T02:23:34;9.50;99.90
19348;DHT22;9810;52.480;9.806;2023-04-01T02:26:04;9.50;99.90
19348;DHT22;9810;52.480;9.806;2023-04-01T02:28:33;9.50;99.90
19348;DHT22;9810;52.480;9.806;2023-04-01T02:31:01;9.60;99.90
19348;DHT22;9810;52.480;9.806;2023-04-01T02:33:30;9.60;99.90
19348;DHT22;9810;52.480;9.806;2023-04-01T02:35:58;9.50;99.90
19348;DHT22;9810;52.480;9.806;2023-04-01T02:38:27;9.50;99.90
19348;DHT22;9810;52.480;9.806;2023-04-01T02:40:58;9.50;99.90
19348;DHT22;9810;52.480;9.806;2023-04-01T02:43:26;9.50;99.90
19348;DHT22;9810;52.480;9.806;2023-04-01T02:45:53;9.50;99.90
19348;DHT22;9810;52.480;9.806;2023-04-01T02:48:20;9.50;99.90
19348;DHT22;9810;52.480;9.806;2023-04-01T02:50:48;9.50;99.90
19348;DHT22;9810;52.480;9.806;2023-04-01T02:53:16;9.40;99.90
19348;DHT22;9810;52.480;9.806;2023-04-01T02:55:45;9.40;99.90
19348;DHT22;9810;52.480;9.806;2023-04-01T02:58:16;9.50;99.90
19348;DHT22;9810;52.480;9.806;2023-04-01T03:00:43;9.50;99.90
19348;DHT22;9810;52.480;9.806;2023-04-01T03:03:11;9.50;99.90
19348;DHT22;9810;52.480;9.806;2023-04-01T03:05:39;9.50;99.90
19348;DHT22;9810;52.480;9.806;2023-04-01T03:08:06;9.50;99.90
19348;DHT22;9810;52.480;9.806;2023-04-01T03:10:33;9.50;99.90
19348;DHT22;9810;52.480;9.806;2023-04-01T03:13:03;9.50;99.90
19348;DHT22;9810;52.480;9.806;2023-04-01T03:15:30;9.50;99.90
19348;DHT22;9810;52.480;9.806;2023-04-01T03:17:57;9.60;99.90
19348;DHT22;9810;52.480;9.806;2023-04-01T03:20:24;9.60;99.90
19348;DHT22;9810;52.480;9.806;2023-04-01T03:22:52;9.50;99.90
19348;DHT22;9810;52.480;9.806;2023-04-01T03:25:19;9.50;99.90
19348;DHT22;9810;52.480;9.806;2023-04-01T03:27:46;9.50;99.90
19348;DHT22;9810;52.480;9.806;2023-04-01T03:30:15;9.50;99.90
19348;DHT22;9810;52.480;9.806;2023-04-01T03:32:43;9.50;99.90
19348;DHT22;9810;52.480;9.806;2023-04-01T03:35:10;9.50;99.90
19348;DHT22;9810;52.480;9.806;2023-04-01T03:37:37;9.50;99.90
19348;DHT22;9810;52.480;9.806;2023-04-01T03:40:05;9.50;99.90
19348;DHT22;9810;52.480;9.806;2023-04-01T03:42:33;9.50;99.90
19348;DHT22;9810;52.480;9.806;2023-04-01T03:45:00;9.50;99.90
19348;DHT22;9810;52.480;9.806;2023-04-01T03:47:29;9.50;99.90
19348;DHT22;9810;52.480;9.806;2023-04-01T03:49:57;9.50;99.90
19348;DHT22;9810;52.480;9.806;2023-04-01T03:52:24;9.50;99.90
19348;DHT22;9810;52.480;9.806;2023-04-01T03:54:51;9.50;99.90
19348;DHT22;9810;52.480;9.806;2023-04-01T03:57:19;9.40;99.90
19348;DHT22;9810;52.480;9.806;2023-04-01T03:59:46;9.50;99.90
19348;DHT22;9810;52.480;9.806;2023-04-01T04:02:13;9.50;99.90
19348;DHT22;9810;52.480;9.806;2023-04-01T04:04:42;9.50;99.90
19348;DHT22;9810;52.480;9.806;2023-04-01T04:07:10;9.40;99.90
19348;DHT22;9810;52.480;9.806;2023-04-01T04:09:37;9.50;99.90
19348;DHT22;9810;52.480;9.806;2023-04-01T04:12:06;9.40;99.90
19348;DHT22;9810;52.480;9.806;2023-04-01T04:14:33;9.50;99.90
19348;DHT22;9810;52.480;9.806;2023-04-01T04:17:00;9.40;99.90
19348;DHT22;9810;52.480;9.806;2023-04-01T04:19:31;9.40;99.90
19348;DHT22;9810;52.480;9.806;2023-04-01T04:22:01;9.40;99.90
19348;DHT22;9810;52.480;9.806;2023-04-01T04:24:29;9.40;99.90
19348;DHT22;9810;52.480;9.806;2023-04-01T04:26:56;9.40;99.90
19348;DHT22;9810;52.480;9.806;2023-04-01T04:29:23;9.40;99.90
19348;DHT22;9810;52.480;9.806;2023-04-01T04:31:50;9.40;99.90
19348;DHT22;9810;52.480;9.806;2023-04-01T04:34:18;9.40;99.90
19348;DHT22;9810;52.480;9.806;2023-04-01T04:36:47;9.40;99.90
19348;DHT22;9810;52.480;9.806;2023-04-01T04:39:16;9.40;99.90
19348;DHT22;9810;52.480;9.806;2023-04-01T04:41:43;9.40;99.90
19348;DHT22;9810;52.480;9.806;2023-04-01T04:44:10;9.40;99.90
19348;DHT22;9810;52.480;9.806;2023-04-01T04:46:38;9.40;99.90
19348;DHT22;9810;52.480;9.806;2023-04-01T04:49:05;9.40;99.90
19348;DHT22;9810;52.480;9.806;2023-04-01T04:51:33;9.40;99.90
19348;DHT22;9810;52.480;9.806;2023-04-01T04:54:01;9.40;99.90
19348;DHT22;9810;52.480;9.806;2023-04-01T04:56:30;9.40;99.90
19348;DHT22;9810;52.480;9.806;2023-04-01T04:58:58;9.40;99.90
19348;DHT22;9810;52.480;9.806;2023-04-01T05:01:25;9.40;99.90
19348;DHT22;9810;52.480;9.806;2023-04-01T05:03:52;9.40;99.90
19348;DHT22;9810;52.480;9.806;2023-04-01T05:06:20;9.40;99.90
19348;DHT22;9810;52.480;9.806;2023-04-01T05:08:47;9.40;99.90
19348;DHT22;9810;52.480;9.806;2023-04-01T05:11:17;9.40;99.90
19348;DHT22;9810;52.480;9.806;2023-04-01T05:13:47;9.40;99.90
19348;DHT22;9810;52.480;9.806;2023-04-01T05:16:17;9.40;99.90
19348;DHT22;9810;52.480;9.806;2023-04-01T05:18:45;9.40;99.90
19348;DHT22;9810;52.480;9.806;2023-04-01T05:21:14;9.40;99.90
19348;DHT22;9810;52.480;9.806;2023-04-01T05:23:42;9.30;99.90
19348;DHT22;9810;52.480;9.806;2023-04-01T05:26:11;9.40;99.90
19348;DHT22;9810;52.480;9.806;2023-04-01T05:28:39;9.40;99.90
19348;DHT22;9810;52.480;9.806;2023-04-01T05:31:09;9.40;99.90
19348;DHT22;9810;52.480;9.806;2023-04-01T05:33:36;9.50;99.90
19348;DHT22;9810;52.480;9.806;2023-04-01T05:36:07;9.50;99.90
19348;DHT22;9810;52.480;9.806;2023-04-01T05:38:35;9.50;99.90
19348;DHT22;9810;52.480;9.806;2023-04-01T05:41:03;9.50;99.90
19348;DHT22;9810;52.480;9.806;2023-04-01T05:43:30;9.50;99.90
19348;DHT22;9810;52.480;9.806;2023-04-01T05:45:58;9.60;99.90
19348;DHT22;9810;52.480;9.806;2023-04-01T05:48:27;9.60;99.90
19348;DHT22;9810;52.480;9.806;2023-04-01T05:50:54;9.60;99.90
19348;DHT22;9810;52.480;9.806;2023-04-01T05:53:21;9.70;99.90
19348;DHT22;9810;52.480;9.806;2023-04-01T05:55:50;9.70;99.90
19348;DHT22;9810;52.480;9.806;2023-04-01T05:58:18;9.70;99.90
19348;DHT22;9810;52.480;9.806;2023-04-01T06:00:45;9.80;99.90
19348;DHT22;9810;52.480;9.806;2023-04-01T06:03:12;9.80;99.90
19348;DHT22;9810;52.480;9.806;2023-04-01T06:05:42;10.00;99.90
19348;DHT22;9810;52.480;9.806;2023-04-01T06:08:12;10.00;99.90
19348;DHT22;9810;52.480;9.806;2023-04-01T06:10:53;10.00;99.90
19348;DHT22;9810;52.480;9.806;2023-04-01T06:13:33;9.90;99.90
19348;DHT22;9810;52.480;9.806;2023-04-01T06:16:07;10.00;99.90
19348;DHT22;9810;52.480;9.806;2023-04-01T06:18:53;10.10;99.90
19348;DHT22;9810;52.480;9.806;2023-04-01T06:21:45;10.20;99.90
19348;DHT22;9810;52.480;9.806;2023-04-01T06:24:28;10.20;99.90
19348;DHT22;9810;52.480;9.806;2023-04-01T06:27:04;10.50;99.90
19348;DHT22;9810;52.480;9.806;2023-04-01T06:29:52;10.70;99.90
19348;DHT22;9810;52.480;9.806;2023-04-01T06:32:40;10.60;99.90
19348;DHT22;9810;52.480;9.806;2023-04-01T06:35:19;10.80;99.90
19348;DHT22;9810;52.480;9.806;2023-04-01T06:38:27;10.90;99.90
19348;DHT22;9810;52.480;9.806;2023-04-01T06:41:08;11.00;99.90
19348;DHT22;9810;52.480;9.806;2023-04-01T06:43:53;11.10;99.90
19348;DHT22;9810;52.480;9.806;2023-04-01T06:46:31;11.20;99.90
19348;DHT22;9810;52.480;9.806;2023-04-01T06:49:17;11.30;99.90
19348;DHT22;9810;52.480;9.806;2023-04-01T06:51:52;11.20;99.90
19348;DHT22;9810;52.480;9.806;2023-04-01T06:54:26;11.30;99.90
19348;DHT22;9810;52.480;9.806;2023-04-01T06:57:02;11.40;99.90
19348;DHT22;9810;52.480;9.806;2023-04-01T06:59:32;11.30;99.90
19348;DHT22;9810;52.480;9.806;2023-04-01T07:02:04;11.60;99.90
19348;DHT22;9810;52.480;9.806;2023-04-01T07:04:39;11.60;99.90
19348;DHT22;9810;52.480;9.806;2023-04-01T07:07:14;11.70;99.90
19348;DHT22;9810;52.480;9.806;2023-04-01T07:09:49;11.60;99.90
19348;DHT22;9810;52.480;9.806;2023-04-01T07:12:22;11.60;99.90
19348;DHT22;9810;52.480;9.806;2023-04-01T07:14:54;11.70;99.90
19348;DHT22;9810;52.480;9.806;2023-04-01T07:17:25;12.00;99.90
19348;DHT22;9810;52.480;9.806;2023-04-01T07:19:59;12.00;99.90
19348;DHT22;9810;52.480;9.806;2023-04-01T07:22:31;12.20;99.90
19348;DHT22;9810;52.480;9.806;2023-04-01T07:25:07;12.40;99.90
19348;DHT22;9810;52.480;9.806;2023-04-01T07:27:38;12.70;99.90
19348;DHT22;9810;52.480;9.806;2023-04-01T07:30:13;13.00;99.90
19348;DHT22;9810;52.480;9.806;2023-04-01T07:32:44;12.70;99.90
19348;DHT22;9810;52.480;9.806;2023-04-01T07:35:21;12.70;99.90
19348;DHT22;9810;52.480;9.806;2023-04-01T07:38:03;12.70;99.90
19348;DHT22;9810;52.480;9.806;2023-04-01T07:40:39;12.90;99.90
19348;DHT22;9810;52.480;9.806;2023-04-01T07:43:22;12.90;99.90
19348;DHT22;9810;52.480;9.806;2023-04-01T07:46:00;12.80;99.90
19348;DHT22;9810;52.480;9.806;2023-04-01T07:48:33;13.00;99.90
19348;DHT22;9810;52.480;9.806;2023-04-01T07:51:08;13.00;99.90
19348;DHT22;9810;52.480;9.806;2023-04-01T07:53:42;12.80;99.90
19348;DHT22;9810;52.480;9.806;2023-04-01T07:56:20;12.90;99.90
19348;DHT22;9810;52.480;9.806;2023-04-01T07:58:58;13.00;99.90
19348;DHT22;9810;52.480;9.806;2023-04-01T08:01:33;13.40;99.90
19348;DHT22;9810;52.480;9.806;2023-04-01T08:04:25;14.10;99.90
19348;DHT22;9810;52.480;9.806;2023-04-01T08:06:59;14.30;99.90
19348;DHT22;9810;52.480;9.806;2023-04-01T08:09:38;15.40;99.90
19348;DHT22;9810;52.480;9.806;2023-04-01T08:12:18;15.80;99.90
19348;DHT22;9810;52.480;9.806;2023-04-01T08:14:56;16.00;99.90
19348;DHT22;9810;52.480;9.806;2023-04-01T08:17:31;15.90;99.90
19348;DHT22;9810;52.480;9.806;2023-04-01T08:20:14;16.10;99.90
19348;DHT22;9810;52.480;9.806;2023-04-01T08:22:48;17.80;99.90
19348;DHT22;9810;52.480;9.806;2023-04-01T08:25:19;17.90;99.90
19348;DHT22;9810;52.480;9.806;2023-04-01T08:27:53;19.80;99.90
19348;DHT22;9810;52.480;9.806;2023-04-01T08:30:23;21.00;99.90
19348;DHT22;9810;52.480;9.806;2023-04-01T08:32:53;23.10;99.90
19348;DHT22;9810;52.480;9.806;2023-04-01T08:35:28;23.20;99.90
19348;DHT22;9810;52.480;9.806;2023-04-01T08:38:01;22.40;99.90
19348;DHT22;9810;52.480;9.806;2023-04-01T08:40:58;21.30;99.90
19348;DHT22;9810;52.480;9.806;2023-04-01T08:43:51;22.10;99.90
19348;DHT22;9810;52.480;9.806;2023-04-01T08:49:38;23.20;99.90
19348;DHT22;9810;52.480;9.806;2023-04-01T08:52:22;24.80;99.90
19348;DHT22;9810;52.480;9.806;2023-04-01T08:55:04;24.00;99.90
19348;DHT22;9810;52.480;9.806;2023-04-01T08:57:45;26.00;99.90
19348;DHT22;9810;52.480;9.806;2023-04-01T09:00:25;29.90;99.90
19348;DHT22;9810;52.480;9.806;2023-04-01T09:06:24;25.20;99.90
19348;DHT22;9810;52.480;9.806;2023-04-01T09:12:06;25.30;99.90
19348;DHT22;9810;52.480;9.806;2023-04-01T09:14:52;24.00;99.90
19348;DHT22;9810;52.480;9.806;2023-04-01T09:17:53;22.60;99.90
19348;DHT22;9810;52.480;9.806;2023-04-01T09:20:45;20.00;99.90
19348;DHT22;9810;52.480;9.806;2023-04-01T09:23:33;19.00;99.90
19348;DHT22;9810;52.480;9.806;2023-04-01T09:26:17;18.20;99.90
19348;DHT22;9810;52.480;9.806;2023-04-01T09:28:57;19.00;99.90
19348;DHT22;9810;52.480;9.806;2023-04-01T09:34:52;19.70;99.90
19348;DHT22;9810;52.480;9.806;2023-04-01T09:37:21;17.90;99.90
19348;DHT22;9810;52.480;9.806;2023-04-01T09:40:14;17.30;99.90
19348;DHT22;9810;52.480;9.806;2023-04-01T09:42:45;17.80;99.90
19348;DHT22;9810;52.480;9.806;2023-04-01T09:45:29;17.60;99.90
19348;DHT22;9810;52.480;9.806;2023-04-01T09:48:11;17.20;99.90
19348;DHT22;9810;52.480;9.806;2023-04-01T09:50:50;16.80;99.90
19348;DHT22;9810;52.480;9.806;2023-04-01T09:53:41;16.30;99.90
19348;DHT22;9810;52.480;9.806;2023-04-01T10:02:40;15.60;99.90
19348;DHT22;9810;52.480;9.806;2023-04-01T10:05:29;14.70;99.90
19348;DHT22;9810;52.480;9.806;2023-04-01T10:08:14;14.50;99.90
19348;DHT22;9810;52.480;9.806;2023-04-01T10:17:07;14.40;99.90
19348;DHT22;9810;52.480;9.806;2023-04-01T10:22:58;14.10;99.90
19348;DHT22;9810;52.480;9.806;2023-04-01T10:25:42;14.50;99.90
19348;DHT22;9810;52.480;9.806;2023-04-01T10:28:35;14.60;99.90
19348;DHT22;9810;52.480;9.806;2023-04-01T10:31:42;14.70;99.90
19348;DHT22;9810;52.480;9.806;2023-04-01T10:37:43;14.90;99.90
19348;DHT22;9810;52.480;9.806;2023-04-01T10:40:48;14.80;99.90
19348;DHT22;9810;52.480;9.806;2023-04-01T10:44:03;14.10;99.90
19348;DHT22;9810;52.480;9.806;2023-04-01T10:46:57;13.70;99.90
19348;DHT22;9810;52.480;9.806;2023-04-01T10:49:44;13.20;99.90
19348;DHT22;9810;52.480;9.806;2023-04-01T10:55:50;13.40;99.90
19348;DHT22;9810;52.480;9.806;2023-04-01T10:58:51;13.40;99.90
19348;DHT22;9810;52.480;9.806;2023-04-01T11:01:53;13.50;99.90
19348;DHT22;9810;52.480;9.806;2023-04-01T11:11:27;13.50;99.90
19348;DHT22;9810;52.480;9.806;2023-04-01T11:14:42;12.70;99.90
19348;DHT22;9810;52.480;9.806;2023-04-01T11:17:51;12.90;99.90
19348;DHT22;9810;52.480;9.806;2023-04-01T11:23:42;13.10;99.90
19348;DHT22;9810;52.480;9.806;2023-04-01T11:26:19;13.30;99.90
19348;DHT22;9810;52.480;9.806;2023-04-01T11:29:26;13.40;99.90
19348;DHT22;9810;52.480;9.806;2023-04-01T11:32:05;13.50;99.90
19348;DHT22;9810;52.480;9.806;2023-04-01T11:34:55;13.20;99.90
19348;DHT22;9810;52.480;9.806;2023-04-01T11:37:38;13.60;99.90
19348;DHT22;9810;52.480;9.806;2023-04-01T11:40:20;14.00;99.90
19348;DHT22;9810;52.480;9.806;2023-04-01T11:42:54;14.20;99.90
19348;DHT22;9810;52.480;9.806;2023-04-01T11:45:35;13.70;99.90
19348;DHT22;9810;52.480;9.806;2023-04-01T11:48:17;13.60;99.90
19348;DHT22;9810;52.480;9.806;2023-04-01T11:51:10;13.80;99.90
19348;DHT22;9810;52.480;9.806;2023-04-01T11:53:49;13.30;99.90
19348;DHT22;9810;52.480;9.806;2023-04-01T11:56:36;13.60;99.90
19348;DHT22;9810;52.480;9.806;2023-04-01T11:59:32;13.30;99.90
19348;DHT22;9810;52.480;9.806;2023-04-01T12:02:12;13.40;99.90
19348;DHT22;9810;52.480;9.806;2023-04-01T12:04:58;13.40;99.90
19348;DHT22;9810;52.480;9.806;2023-04-01T12:07:53;13.10;99.90
19348;DHT22;9810;52.480;9.806;2023-04-01T12:10:28;13.50;99.90
19348;DHT22;9810;52.480;9.806;2023-04-01T12:13:04;13.40;99.90
19348;DHT22;9810;52.480;9.806;2023-04-01T12:15:48;13.70;99.90
19348;DHT22;9810;52.480;9.806;2023-04-01T12:18:24;14.10;99.90
19348;DHT22;9810;52.480;9.806;2023-04-01T12:20:59;13.90;99.90
19348;DHT22;9810;52.480;9.806;2023-04-01T12:23:54;14.10;99.90
19348;DHT22;9810;52.480;9.806;2023-04-01T12:29:42;14.40;99.90
19348;DHT22;9810;52.480;9.806;2023-04-01T12:32:20;14.40;99.90
19348;DHT22;9810;52.480;9.806;2023-04-01T12:37:50;14.20;99.90
19348;DHT22;9810;52.480;9.806;2023-04-01T12:40:45;14.00;99.90
19348;DHT22;9810;52.480;9.806;2023-04-01T12:43:34;13.90;99.90
19348;DHT22;9810;52.480;9.806;2023-04-01T12:46:15;13.90;99.90
19348;DHT22;9810;52.480;9.806;2023-04-01T12:49:12;14.00;99.90
19348;DHT22;9810;52.480;9.806;2023-04-01T12:51:56;13.80;99.90
19348;DHT22;9810;52.480;9.806;2023-04-01T12:55:18;13.40;99.90
19348;DHT22;9810;52.480;9.806;2023-04-01T13:01:29;13.20;99.90
19348;DHT22;9810;52.480;9.806;2023-04-01T13:04:34;13.10;99.90
19348;DHT22;9810;52.480;9.806;2023-04-01T13:07:21;12.90;99.90
19348;DHT22;9810;52.480;9.806;2023-04-01T13:09:58;13.00;99.90
19348;DHT22;9810;52.480;9.806;2023-04-01T13:12:49;12.70;99.90
19348;DHT22;9810;52.480;9.806;2023-04-01T13:15:28;12.20;99.90
19348;DHT22;9810;52.480;9.806;2023-04-01T13:18:04;12.20;99.90
19348;DHT22;9810;52.480;9.806;2023-04-01T13:20:43;11.90;99.90
19348;DHT22;9810;52.480;9.806;2023-04-01T13:23:20;12.00;99.90
19348;DHT22;9810;52.480;9.806;2023-04-01T13:26:00;11.50;99.90
19348;DHT22;9810;52.480;9.806;2023-04-01T13:28:32;11.70;99.90
19348;DHT22;9810;52.480;9.806;2023-04-01T13:31:05;11.90;99.90
19348;DHT22;9810;52.480;9.806;2023-04-01T13:33:41;11.60;99.90
19348;DHT22;9810;52.480;9.806;2023-04-01T13:36:19;11.80;99.90
19348;DHT22;9810;52.480;9.806;2023-04-01T13:39:12;12.10;99.90
19348;DHT22;9810;52.480;9.806;2023-04-01T13:41:59;12.10;99.90
19348;DHT22;9810;52.480;9.806;2023-04-01T13:44:32;11.90;99.90
19348;DHT22;9810;52.480;9.806;2023-04-01T13:47:47;11.90;99.90
19348;DHT22;9810;52.480;9.806;2023-04-01T13:56:30;11.50;99.90
19348;DHT22;9810;52.480;9.806;2023-04-01T14:02:07;11.30;99.90
19348;DHT22;9810;52.480;9.806;2023-04-01T14:04:53;11.50;99.90
19348;DHT22;9810;52.480;9.806;2023-04-01T14:07:40;11.40;99.90
19348;DHT22;9810;52.480;9.806;2023-04-01T14:10:19;11.40;99.90
19348;DHT22;9810;52.480;9.806;2023-04-01T14:12:58;11.20;99.90
19348;DHT22;9810;52.480;9.806;2023-04-01T14:15:48;11.00;99.90
19348;DHT22;9810;52.480;9.806;2023-04-01T14:18:45;11.10;99.90
19348;DHT22;9810;52.480;9.806;2023-04-01T14:21:29;11.20;99.90
19348;DHT22;9810;52.480;9.806;2023-04-01T14:24:20;11.30;99.90
19348;DHT22;9810;52.480;9.806;2023-04-01T14:30:12;11.30;99.90
19348;DHT22;9810;52.480;9.806;2023-04-01T14:32:49;11.20;99.90
19348;DHT22;9810;52.480;9.806;2023-04-01T14:35:29;11.10;99.90
19348;DHT22;9810;52.480;9.806;2023-04-01T14:38:06;10.50;99.90
19348;DHT22;9810;52.480;9.806;2023-04-01T14:40:47;10.80;99.90
19348;DHT22;9810;52.480;9.806;2023-04-01T14:46:16;10.80;99.90
19348;DHT22;9810;52.480;9.806;2023-04-01T14:48:51;10.70;99.90
19348;DHT22;9810;52.480;9.806;2023-04-01T14:51:28;10.50;99.90
19348;DHT22;9810;52.480;9.806;2023-04-01T14:54:02;10.60;99.90
19348;DHT22;9810;52.480;9.806;2023-04-01T14:56:39;10.50;99.90
19348;DHT22;9810;52.480;9.806;2023-04-01T14:59:10;10.50;99.90
19348;DHT22;9810;52.480;9.806;2023-04-01T15:01:47;10.50;99.90
19348;DHT22;9810;52.480;9.806;2023-04-01T15:07:56;10.50;99.90
19348;DHT22;9810;52.480;9.806;2023-04-01T15:13:37;10.30;99.90
19348;DHT22;9810;52.480;9.806;2023-04-01T15:16:21;10.30;99.90
19348;DHT22;9810;52.480;9.806;2023-04-01T15:19:00;10.20;99.90
19348;DHT22;9810;52.480;9.806;2023-04-01T15:21:41;9.90;99.90
19348;DHT22;9810;52.480;9.806;2023-04-01T15:24:15;10.10;99.90
19348;DHT22;9810;52.480;9.806;2023-04-01T15:27:21;10.20;99.90
19348;DHT22;9810;52.480;9.806;2023-04-01T15:30:21;10.00;99.90
19348;DHT22;9810;52.480;9.806;2023-04-01T15:33:02;10.00;99.90
19348;DHT22;9810;52.480;9.806;2023-04-01T15:35:42;9.80;99.90
19348;DHT22;9810;52.480;9.806;2023-04-01T15:38:23;9.70;99.90
19348;DHT22;9810;52.480;9.806;2023-04-01T15:41:01;9.70;99.90
19348;DHT22;9810;52.480;9.806;2023-04-01T15:43:40;9.80;99.90
19348;DHT22;9810;52.480;9.806;2023-04-01T15:46:30;9.70;99.90
19348;DHT22;9810;52.480;9.806;2023-04-01T15:49:27;9.70;99.90
19348;DHT22;9810;52.480;9.806;2023-04-01T15:52:05;9.50;99.90
19348;DHT22;9810;52.480;9.806;2023-04-01T15:55:03;9.50;99.90
19348;DHT22;9810;52.480;9.806;2023-04-01T15:57:40;9.60;99.90
19348;DHT22;9810;52.480;9.806;2023-04-01T16:00:27;9.50;99.90
19348;DHT22;9810;52.480;9.806;2023-04-01T16:03:13;9.50;99.90
19348;DHT22;9810;52.480;9.806;2023-04-01T16:05:55;9.50;99.90
19348;DHT22;9810;52.480;9.806;2023-04-01T16:08:47;9.40;99.90
19348;DHT22;9810;52.480;9.806;2023-04-01T16:11:23;9.50;99.90
19348;DHT22;9810;52.480;9.806;2023-04-01T16:13:59;9.30;99.90
19348;DHT22;9810;52.480;9.806;2023-04-01T16:16:50;9.30;99.90
19348;DHT22;9810;52.480;9.806;2023-04-01T16:19:41;9.10;99.90
19348;DHT22;9810;52.480;9.806;2023-04-01T16:22:16;9.20;99.90
19348;DHT22;9810;52.480;9.806;2023-04-01T16:24:52;9.10;99.90
19348;DHT22;9810;52.480;9.806;2023-04-01T16:27:27;9.00;99.90
19348;DHT22;9810;52.480;9.806;2023-04-01T16:30:00;9.10;99.90
19348;DHT22;9810;52.480;9.806;2023-04-01T16:32:36;9.00;99.90
19348;DHT22;9810;52.480;9.806;2023-04-01T16:35:23;9.00;99.90
19348;DHT22;9810;52.480;9.806;2023-04-01T16:37:59;8.90;99.90
19348;DHT22;9810;52.480;9.806;2023-04-01T16:40:41;8.70;99.90
19348;DHT22;9810;52.480;9.806;2023-04-01T16:43:19;8.60;99.90
19348;DHT22;9810;52.480;9.806;2023-04-01T16:45:57;8.70;99.90
19348;DHT22;9810;52.480;9.806;2023-04-01T16:48:44;8.50;99.90
19348;DHT22;9810;52.480;9.806;2023-04-01T16:51:15;8.70;99.90
19348;DHT22;9810;52.480;9.806;2023-04-01T16:53:45;8.50;99.90
19348;DHT22;9810;52.480;9.806;2023-04-01T16:56:21;8.60;99.90
19348;DHT22;9810;52.480;9.806;2023-04-01T16:58:59;8.70;99.90
19348;DHT22;9810;52.480;9.806;2023-04-01T17:01:30;8.50;99.90
19348;DHT22;9810;52.480;9.806;2023-04-01T17:04:04;8.50;99.90
19348;DHT22;9810;52.480;9.806;2023-04-01T17:06:37;8.50;99.90
19348;DHT22;9810;52.480;9.806;2023-04-01T17:09:24;8.30;99.90
19348;DHT22;9810;52.480;9.806;2023-04-01T17:11:58;8.20;99.90
19348;DHT22;9810;52.480;9.806;2023-04-01T17:14:30;8.20;99.90
19348;DHT22;9810;52.480;9.806;2023-04-01T17:17:18;8.20;99.90
19348;DHT22;9810;52.480;9.806;2023-04-01T17:19:56;8.10;99.90
19348;DHT22;9810;52.480;9.806;2023-04-01T17:22:33;8.00;99.90
19348;DHT22;9810;52.480;9.806;2023-04-01T17:28:14;7.90;99.90
19348;DHT22;9810;52.480;9.806;2023-04-01T17:30:51;8.00;99.90
19348;DHT22;9810;52.480;9.806;2023-04-01T17:36:29;7.80;99.90
19348;DHT22;9810;52.480;9.806;2023-04-01T17:39:14;7.80;99.90
19348;DHT22;9810;52.480;9.806;2023-04-01T17:41:51;7.80;99.90
19348;DHT22;9810;52.480;9.806;2023-04-01T17:44:44;7.90;99.90
19348;DHT22;9810;52.480;9.806;2023-04-01T17:47:35;7.90;99.90
19348;DHT22;9810;52.480;9.806;2023-04-01T17:50:23;7.90;99.90
19348;DHT22;9810;52.480;9.806;2023-04-01T17:53:01;7.80;99.90
19348;DHT22;9810;52.480;9.806;2023-04-01T17:55:43;7.90;99.90
19348;DHT22;9810;52.480;9.806;2023-04-01T17:58:17;7.90;99.90
19348;DHT22;9810;52.480;9.806;2023-04-01T18:04:15;7.60;99.90
19348;DHT22;9810;52.480;9.806;2023-04-01T18:07:02;7.70;99.90
19348;DHT22;9810;52.480;9.806;2023-04-01T18:09:42;7.60;99.90
19348;DHT22;9810;52.480;9.806;2023-04-01T18:12:22;7.80;99.90
19348;DHT22;9810;52.480;9.806;2023-04-01T18:15:05;7.80;99.90
19348;DHT22;9810;52.480;9.806;2023-04-01T18:17:54;7.70;99.90
19348;DHT22;9810;52.480;9.806;2023-04-01T18:20:31;7.70;99.90
19348;DHT22;9810;52.480;9.806;2023-04-01T18:23:03;7.60;99.90
19348;DHT22;9810;52.480;9.806;2023-04-01T18:25:34;7.40;99.90